createdAt,value
2024-01-08T00:01:13.489Z,103373.59
2024-01-08T00:03:41.603Z,103365.66
2024-01-08T00:06:10.273Z,103364.81
2024-01-08T00:08:38.171Z,103366.88
2024-01-08T00:11:06.683Z,103368.72
2024-01-08T00:13:34.573Z,103366.03
2024-01-08T00:16:03.845Z,103369.88
2024-01-08T00:18:31.752Z,103381.09
2024-01-08T00:21:00.878Z,103387.09
2024-01-08T00:23:29.588Z,103375.88
2024-01-08T00:25:57.628Z,103388.94
2024-01-08T00:28:26.938Z,103395.00
2024-01-08T00:30:54.951Z,103379.34
2024-01-08T00:33:24.223Z,103395.78
2024-01-08T00:35:53.679Z,103398.31
2024-01-08T00:38:21.643Z,103391.47
2024-01-08T00:40:49.902Z,103382.81
2024-01-08T00:43:18.006Z,103394.91
2024-01-08T00:45:45.754Z,103375.69
2024-01-08T00:48:13.554Z,103400.91
2024-01-08T00:50:42.795Z,103402.47
2024-01-08T00:53:10.836Z,103378.22
2024-01-08T00:55:39.649Z,103399.88
2024-01-08T00:58:07.469Z,103404.25
2024-01-08T01:00:35.210Z,103400.75
2024-01-08T01:03:03.107Z,103406.03
2024-01-08T01:05:31.228Z,103402.56
2024-01-08T01:08:00.404Z,103419.97
2024-01-08T01:10:28.330Z,103408.75
2024-01-08T01:12:56.144Z,103401.78
2024-01-08T01:15:24.906Z,103410.31
2024-01-08T01:17:52.746Z,103399.88
2024-01-08T01:20:20.570Z,103415.53
2024-01-08T01:22:49.648Z,103410.41
2024-01-08T01:25:19.485Z,103419.06
2024-01-08T01:27:47.197Z,103410.38
2024-01-08T01:30:15.960Z,103411.19
2024-01-08T01:32:44.164Z,103406.13
2024-01-08T01:35:12.001Z,103421.72
2024-01-08T01:37:42.954Z,103414.03
2024-01-08T01:40:11.915Z,103407.03
2024-01-08T01:42:41.394Z,103420.91
2024-01-08T01:45:10.115Z,103422.50
2024-01-08T01:47:38.553Z,103418.22
2024-01-08T01:50:09.110Z,103426.03
2024-01-08T01:52:37.214Z,103400.84
2024-01-08T01:55:05.545Z,103413.09
2024-01-08T01:57:34.808Z,103408.56
2024-01-08T02:00:04.228Z,103398.94
2024-01-08T02:02:33.491Z,103448.59
2024-01-08T02:05:01.900Z,103404.06
2024-01-08T02:07:30.253Z,103398.06
2024-01-08T02:09:58.843Z,103406.75
2024-01-08T02:12:27.394Z,103415.34
2024-01-08T02:14:56.267Z,103411.63
2024-01-08T02:17:25.531Z,103413.34
2024-01-08T02:19:53.385Z,103391.69
2024-01-08T02:22:21.118Z,103420.25
2024-01-08T02:24:50.303Z,103407.97
2024-01-08T02:27:18.355Z,103403.53
2024-01-08T02:29:46.069Z,103422.56
2024-01-08T02:32:14.778Z,103423.22
2024-01-08T02:34:42.581Z,103418.81
2024-01-08T02:37:10.328Z,103409.31
2024-01-08T02:39:38.056Z,103404.63
2024-01-08T02:42:07.573Z,103395.06
2024-01-08T02:44:35.425Z,103406.97
2024-01-08T02:47:03.778Z,103405.19
2024-01-08T02:49:31.569Z,103410.97
2024-01-08T02:51:59.382Z,103415.06
2024-01-08T02:54:27.448Z,103409.00
2024-01-08T02:56:55.197Z,103402.56
2024-01-08T02:59:24.357Z,103408.34
2024-01-08T03:01:52.126Z,103415.19
2024-01-08T03:04:19.879Z,103402.06
2024-01-08T03:06:47.723Z,103413.97
2024-01-08T03:09:15.486Z,103419.91
2024-01-08T03:11:43.213Z,103396.53
2024-01-08T03:14:11.573Z,103399.78
2024-01-08T03:16:40.918Z,103406.66
2024-01-08T03:19:08.738Z,103409.84
2024-01-08T03:21:36.475Z,103409.66
2024-01-08T03:24:04.429Z,103406.72
2024-01-08T03:26:32.261Z,103404.09
2024-01-08T03:28:59.918Z,103428.19
2024-01-08T03:31:27.955Z,103424.59
2024-01-08T03:33:57.703Z,103426.47
2024-01-08T03:36:25.441Z,103419.41
2024-01-08T03:38:53.193Z,103419.31
2024-01-08T03:41:20.935Z,103424.50
2024-01-08T03:43:48.763Z,103430.53
2024-01-08T03:46:17.366Z,103418.31
2024-01-08T03:48:46.094Z,103425.28
2024-01-08T03:51:15.657Z,103428.84
2024-01-08T03:53:43.460Z,103434.91
2024-01-08T03:56:11.220Z,103435.72
2024-01-08T03:58:39.478Z,103426.16
2024-01-08T04:01:07.325Z,103440.97
2024-01-08T04:03:35.053Z,103448.91
2024-01-08T04:06:02.909Z,103448.84
2024-01-08T04:08:32.117Z,103448.06
2024-01-08T04:11:00.080Z,103463.59
2024-01-08T04:13:27.861Z,103468.88
2024-01-08T04:15:55.632Z,103463.59
2024-01-08T04:18:23.456Z,103475.75
2024-01-08T04:20:51.271Z,103479.19
2024-01-08T04:23:19.156Z,103473.91
2024-01-08T04:25:48.306Z,103452.75
2024-01-08T04:28:16.037Z,103463.38
2024-01-08T04:30:44.698Z,103467.81
2024-01-08T04:33:12.577Z,103466.25
2024-01-08T04:35:40.450Z,103469.63
2024-01-08T04:38:08.247Z,103473.03
2024-01-08T04:40:36.685Z,103491.25
2024-01-08T04:43:05.906Z,103475.50
2024-01-08T04:45:34.222Z,103486.56
2024-01-08T04:48:02.357Z,103478.63
2024-01-08T04:50:30.173Z,103475.81
2024-01-08T04:52:58.362Z,103493.13
2024-01-08T04:55:26.587Z,103482.56
2024-01-08T04:57:54.300Z,103479.19
2024-01-08T05:00:23.668Z,103506.88
2024-01-08T05:02:51.529Z,103502.41
2024-01-08T05:05:19.388Z,103488.47
2024-01-08T05:07:47.148Z,103494.66
2024-01-08T05:10:16.339Z,103499.66
2024-01-08T05:12:44.489Z,103499.81
2024-01-08T05:15:12.593Z,103495.44
2024-01-08T05:17:42.212Z,103511.94
2024-01-08T05:20:12.489Z,103508.31
2024-01-08T05:22:40.476Z,103498.75
2024-01-08T05:25:09.341Z,103513.59
2024-01-08T05:27:37.244Z,103507.56
2024-01-08T05:30:05.842Z,103509.19
2024-01-08T05:32:33.966Z,103520.47
2024-01-08T05:35:03.455Z,103506.44
2024-01-08T05:37:31.398Z,103523.16
2024-01-08T05:39:59.195Z,103514.53
2024-01-08T05:42:27.030Z,103511.91
2024-01-08T05:44:54.749Z,103523.28
2024-01-08T05:47:22.685Z,103511.84
2024-01-08T05:49:50.569Z,103503.06
2024-01-08T05:52:19.805Z,103533.91
2024-01-08T05:54:47.562Z,103520.00
2024-01-08T05:57:15.296Z,103507.94
2024-01-08T05:59:43.189Z,103512.13
2024-01-08T06:02:11.346Z,103508.84
2024-01-08T06:04:39.749Z,103508.16
2024-01-08T06:07:07.498Z,103515.16
2024-01-08T06:09:37.124Z,103511.56
2024-01-08T06:12:05.449Z,103525.44
2024-01-08T06:14:33.279Z,103517.78
2024-01-08T06:17:01.597Z,103525.66
2024-01-08T06:19:29.365Z,103530.00
2024-01-08T06:21:57.118Z,103523.03
2024-01-08T06:24:24.852Z,103530.03
2024-01-08T06:26:53.913Z,103523.16
2024-01-08T06:29:22.962Z,103528.38
2024-01-08T06:31:50.880Z,103522.19
2024-01-08T06:34:18.737Z,103530.91
2024-01-08T06:36:46.539Z,103532.75
2024-01-08T06:39:15.602Z,103533.69
2024-01-08T06:41:44.369Z,103545.81
2024-01-08T06:44:13.661Z,103546.59
2024-01-08T06:46:41.378Z,103552.66
2024-01-08T06:49:10.016Z,103568.19
2024-01-08T06:51:41.735Z,103563.72
2024-01-08T06:54:10.944Z,103562.94
2024-01-08T06:56:40.171Z,103563.72
2024-01-08T06:59:08.046Z,103575.75
2024-01-08T07:01:37.160Z,103569.50
2024-01-08T07:04:05.308Z,103574.88
2024-01-08T07:06:33.357Z,103589.50
2024-01-08T07:09:01.280Z,103593.09
2024-01-08T07:11:29.276Z,103591.25
2024-01-08T07:13:58.364Z,103596.50
2024-01-08T07:16:26.756Z,103594.72
2024-01-08T07:18:56.497Z,103611.44
2024-01-08T07:21:24.380Z,103600.94
2024-01-08T07:23:52.168Z,103607.81
2024-01-08T07:26:19.983Z,103604.13
2024-01-08T07:28:48.634Z,103604.94
2024-01-08T07:31:17.655Z,103610.28
2024-01-08T07:33:45.712Z,103614.66
2024-01-08T07:36:15.348Z,103621.56
2024-01-08T07:38:43.187Z,103621.56
2024-01-08T07:41:11.055Z,103620.59
2024-01-08T07:43:39.294Z,103631.09
2024-01-08T07:46:07.099Z,103637.91
2024-01-08T07:48:34.984Z,103637.91
2024-01-08T07:51:03.048Z,103647.88
2024-01-08T07:53:32.946Z,103682.84
2024-01-08T07:56:01.434Z,103655.72
2024-01-08T07:58:36.138Z,103662.53
2024-01-08T08:01:09.052Z,103658.13
2024-01-08T08:03:38.628Z,103672.81
2024-01-08T08:06:06.716Z,103670.28
2024-01-08T08:08:36.563Z,103672.81
2024-01-08T08:11:06.762Z,103666.59
2024-01-08T08:13:34.568Z,103668.63
2024-01-08T08:16:02.378Z,103667.56
2024-01-08T08:18:30.226Z,103671.06
2024-01-08T08:20:58.483Z,103699.94
2024-01-08T08:23:26.461Z,103691.13
2024-01-08T08:25:55.653Z,103703.25
2024-01-08T08:28:23.493Z,103715.41
2024-01-08T08:30:51.396Z,103708.50
2024-01-08T08:33:19.702Z,103721.59
2024-01-08T08:35:47.704Z,103723.25
2024-01-08T08:38:15.951Z,103717.16
2024-01-08T08:40:44.944Z,103734.72
2024-01-08T08:43:14.070Z,103729.59
2024-01-08T08:45:41.824Z,103733.78
2024-01-08T08:48:10.507Z,103734.78
2024-01-08T08:50:38.713Z,103737.53
2024-01-08T08:53:06.526Z,103734.63
2024-01-08T08:55:34.235Z,103735.38
2024-01-08T08:58:01.946Z,103743.00
2024-01-08T09:00:31.072Z,103737.59
2024-01-08T09:03:00.417Z,103756.72
2024-01-08T09:05:33.571Z,103745.22
2024-01-08T09:08:08.375Z,103743.44
2024-01-08T09:10:36.770Z,103743.50
2024-01-08T09:13:04.834Z,103745.97
2024-01-08T09:15:33.971Z,103751.09
2024-01-08T09:18:02.710Z,103748.44
2024-01-08T09:20:30.742Z,103757.97
2024-01-08T09:22:59.062Z,103754.56
2024-01-08T09:25:27.018Z,103762.72
2024-01-08T09:27:54.865Z,103757.97
2024-01-08T09:30:22.644Z,103756.91
2024-01-08T09:32:51.911Z,103774.28
2024-01-08T09:35:21.156Z,103757.56
2024-01-08T09:37:49.931Z,103777.06
2024-01-08T09:40:17.856Z,103774.19
2024-01-08T09:42:46.540Z,103765.50
2024-01-08T09:45:14.771Z,103767.72
2024-01-08T09:47:44.022Z,103761.72
2024-01-08T09:50:15.781Z,103766.63
2024-01-08T09:52:44.710Z,103773.50
2024-01-08T09:55:14.659Z,103760.41
2024-01-08T09:57:42.914Z,103774.09
2024-01-08T10:00:12.446Z,103763.47
2024-01-08T10:02:40.609Z,103760.00
2024-01-08T10:05:09.868Z,103764.25
2024-01-08T10:07:39.157Z,103758.53
2024-01-08T10:10:07.932Z,103760.34
2024-01-08T10:12:36.207Z,103758.91
2024-01-08T10:15:05.126Z,103750.69
2024-01-08T10:17:33.205Z,103765.66
2024-01-08T10:20:08.511Z,103767.13
2024-01-08T10:22:36.499Z,103761.53
2024-01-08T10:25:07.149Z,103759.88
2024-01-08T10:27:35.390Z,103765.25
2024-01-08T10:30:04.251Z,103761.31
2024-01-08T10:32:32.497Z,103758.00
2024-01-08T10:35:03.945Z,103755.75
2024-01-08T10:37:32.010Z,103758.94
2024-01-08T10:40:02.247Z,103760.88
2024-01-08T10:42:31.768Z,103754.22
2024-01-08T10:44:59.719Z,103759.38
2024-01-08T10:47:29.787Z,103761.59
2024-01-08T10:50:00.387Z,103764.00
2024-01-08T10:52:32.966Z,103786.78
2024-01-08T10:55:04.102Z,103762.16
2024-01-08T10:57:39.222Z,103765.22
2024-01-08T11:00:10.967Z,103766.66
2024-01-08T11:02:40.255Z,103755.41
2024-01-08T11:05:10.074Z,103760.50
2024-01-08T11:07:39.787Z,103768.69
2024-01-08T11:10:08.500Z,103774.91
2024-01-08T11:12:38.830Z,103766.41
2024-01-08T11:15:07.804Z,103766.38
2024-01-08T11:17:36.339Z,103764.75
2024-01-08T11:20:07.169Z,103781.66
2024-01-08T11:22:35.248Z,103770.06
2024-01-08T11:25:04.551Z,103763.16
2024-01-08T11:27:33.702Z,103768.56
2024-01-08T11:30:05.667Z,103797.38
2024-01-08T11:33:11.897Z,103773.03
2024-01-08T11:35:44.039Z,103781.41
2024-01-08T11:38:26.865Z,103777.88
2024-01-08T11:40:56.123Z,103802.13
2024-01-08T11:43:24.094Z,103776.56
2024-01-08T11:45:53.169Z,103782.00
2024-01-08T11:48:22.228Z,103776.78
2024-01-08T11:50:50.195Z,103772.97
2024-01-08T11:53:19.231Z,103801.91
2024-01-08T11:55:47.716Z,103785.50
2024-01-08T11:58:17.319Z,103774.81
2024-01-08T12:00:45.930Z,103776.72
2024-01-08T12:03:15.186Z,103769.44
2024-01-08T12:05:43.223Z,103798.47
2024-01-08T12:08:17.938Z,103776.03
2024-01-08T12:10:46.739Z,103778.22
2024-01-08T12:13:15.650Z,103783.41
2024-01-08T12:15:43.399Z,103781.31
2024-01-08T12:18:11.243Z,103782.97
2024-01-08T12:20:41.580Z,103770.66
2024-01-08T12:23:11.034Z,103782.94
2024-01-08T12:25:40.114Z,103775.31
2024-01-08T12:28:09.632Z,103778.03
2024-01-08T12:30:37.443Z,103788.38
2024-01-08T12:33:07.009Z,103795.50
2024-01-08T12:35:40.064Z,103799.28
2024-01-08T12:38:07.983Z,103787.84
2024-01-08T12:40:35.743Z,103792.31
2024-01-08T12:43:05.110Z,103789.81
2024-01-08T12:45:34.541Z,103790.56
2024-01-08T12:48:02.502Z,103796.94
2024-01-08T12:50:31.628Z,103801.97
2024-01-08T12:53:00.993Z,103799.34
2024-01-08T12:55:28.713Z,103796.09
2024-01-08T12:57:58.800Z,103795.00
2024-01-08T13:00:28.878Z,103797.94
2024-01-08T13:02:56.795Z,103795.13
2024-01-08T13:05:24.708Z,103803.38
2024-01-08T13:07:52.563Z,103803.94
2024-01-08T13:10:21.677Z,103792.44
2024-01-08T13:12:49.443Z,103794.44
2024-01-08T13:15:17.257Z,103796.13
2024-01-08T13:17:45.168Z,103791.69
2024-01-08T13:20:22.568Z,103785.59
2024-01-08T13:22:55.145Z,103797.53
2024-01-08T13:25:25.058Z,103799.88
2024-01-08T13:27:52.823Z,103796.41
2024-01-08T13:30:21.544Z,103792.84
2024-01-08T13:32:49.671Z,103793.09
2024-01-08T13:35:19.309Z,103775.53
2024-01-08T13:37:47.265Z,103777.78
2024-01-08T13:40:15.098Z,103788.06
2024-01-08T13:42:45.789Z,103788.84
2024-01-08T13:45:13.527Z,103794.19
2024-01-08T13:47:41.944Z,103795.75
2024-01-08T13:50:10.975Z,103798.91
2024-01-08T13:52:39.058Z,103793.84
2024-01-08T13:55:08.326Z,103798.50
2024-01-08T13:57:36.314Z,103808.25
2024-01-08T14:00:07.039Z,103813.81
2024-01-08T14:02:35.348Z,103819.78
2024-01-08T14:05:03.561Z,103805.81
2024-01-08T14:07:31.456Z,103809.19
2024-01-08T14:09:59.495Z,103813.50
2024-01-08T14:12:27.211Z,103813.78
2024-01-08T14:14:54.935Z,103807.00
2024-01-08T14:17:24.082Z,103822.63
2024-01-08T14:19:51.876Z,103826.00
2024-01-08T14:22:19.900Z,103816.72
2024-01-08T14:24:47.638Z,103812.44
2024-01-08T14:27:15.428Z,103825.44
2024-01-08T14:29:47.552Z,103822.91
2024-01-08T14:32:18.084Z,103828.22
2024-01-08T14:34:47.593Z,103835.41
2024-01-08T14:37:15.422Z,103845.88
2024-01-08T14:39:43.153Z,103840.56
2024-01-08T14:42:11.550Z,103835.47
2024-01-08T14:44:39.369Z,103819.44
2024-01-08T14:47:07.742Z,103835.16
2024-01-08T14:49:35.566Z,103829.91
2024-01-08T14:52:05.215Z,103825.53
2024-01-08T14:54:33.004Z,103835.16
2024-01-08T14:57:00.904Z,103829.91
2024-01-08T14:59:30.225Z,103824.78
2024-01-08T15:02:00.373Z,103816.00
2024-01-08T15:04:28.325Z,103835.31
2024-01-08T15:06:57.760Z,103837.19
2024-01-08T15:09:27.045Z,103831.94
2024-01-08T15:11:55.230Z,103831.06
2024-01-08T15:14:25.458Z,103840.84
2024-01-08T15:16:53.979Z,103826.66
2024-01-08T15:19:21.807Z,103832.78
2024-01-08T15:21:52.408Z,103835.41
2024-01-08T15:24:20.123Z,103834.53
2024-01-08T15:26:49.421Z,103834.53
2024-01-08T15:29:18.373Z,103837.94
2024-01-08T15:31:46.801Z,103839.59
2024-01-08T15:34:15.195Z,103841.44
2024-01-08T15:36:42.982Z,103846.91
2024-01-08T15:39:15.551Z,103843.56
2024-01-08T15:41:43.454Z,103843.44
2024-01-08T15:44:12.884Z,103841.63
2024-01-08T15:46:42.235Z,103843.44
2024-01-08T15:49:10.375Z,103834.63
2024-01-08T15:51:38.249Z,103845.91
2024-01-08T15:54:06.035Z,103852.81
2024-01-08T15:56:33.971Z,103856.38
2024-01-08T15:59:01.834Z,103849.19
2024-01-08T16:01:34.483Z,103859.06
2024-01-08T16:04:02.377Z,103852.88
2024-01-08T16:06:30.238Z,103857.28
2024-01-08T16:08:58.147Z,103865.22
2024-01-08T16:11:26.584Z,103865.28
2024-01-08T16:13:54.404Z,103858.31
2024-01-08T16:16:23.504Z,103861.00
2024-01-08T16:18:52.713Z,103856.81
2024-01-08T16:21:20.437Z,103859.19
2024-01-08T16:23:55.683Z,103860.94
2024-01-08T16:26:31.517Z,103874.88
2024-01-08T16:28:59.374Z,103877.34
2024-01-08T16:31:27.435Z,103875.50
2024-01-08T16:33:57.124Z,103886.06
2024-01-08T16:36:25.490Z,103883.28
2024-01-08T16:38:53.450Z,103879.00
2024-01-08T16:41:21.369Z,103885.81
2024-01-08T16:43:49.267Z,103887.66
2024-01-08T16:46:16.972Z,103878.03
2024-01-08T16:48:45.346Z,103887.53
2024-01-08T16:51:15.618Z,103886.75
2024-01-08T16:53:43.458Z,103890.34
2024-01-08T16:56:11.194Z,103901.00
2024-01-08T16:58:38.816Z,103902.75
2024-01-08T17:01:07.046Z,103902.88
2024-01-08T17:03:34.946Z,103901.22
2024-01-08T17:06:05.567Z,103893.59
2024-01-08T17:08:35.705Z,103902.28
2024-01-08T17:11:03.826Z,103897.91
2024-01-08T17:13:32.464Z,103895.38
2024-01-08T17:16:00.100Z,103904.44
2024-01-08T17:18:28.291Z,103905.50
2024-01-08T17:20:56.028Z,103901.03
2024-01-08T17:23:24.016Z,103920.34
2024-01-08T17:25:53.052Z,103927.16
2024-01-08T17:28:22.899Z,103928.81
2024-01-08T17:30:50.948Z,103919.22
2024-01-08T17:33:18.801Z,103920.16
2024-01-08T17:35:46.843Z,103920.09
2024-01-08T17:38:14.614Z,103923.59
2024-01-08T17:40:43.039Z,103917.53
2024-01-08T17:43:12.396Z,103920.94
2024-01-08T17:45:40.208Z,103921.03
2024-01-08T17:48:09.373Z,103928.13
2024-01-08T17:50:37.237Z,103938.69
2024-01-08T17:53:05.193Z,103941.38
2024-01-08T17:55:33.321Z,103937.97
2024-01-08T17:58:01.311Z,103932.84
2024-01-08T18:00:30.365Z,103930.22
2024-01-08T18:02:58.312Z,103939.09
2024-01-08T18:05:26.338Z,103933.97
2024-01-08T18:07:54.103Z,103945.28
2024-01-08T18:10:22.126Z,103943.66
2024-01-08T18:12:49.799Z,103943.66
2024-01-08T18:15:17.530Z,103941.94
2024-01-08T18:17:47.196Z,103946.41
2024-01-08T18:20:15.171Z,103943.72
2024-01-08T18:22:43.025Z,103949.88
2024-01-08T18:25:10.897Z,103945.47
2024-01-08T18:27:38.594Z,103957.66
2024-01-08T18:30:08.208Z,103956.88
2024-01-08T18:32:36.069Z,103958.69
2024-01-08T18:35:05.940Z,103961.22
2024-01-08T18:37:34.384Z,103961.31
2024-01-08T18:40:02.017Z,103963.06
2024-01-08T18:42:30.331Z,103971.00
2024-01-08T18:44:58.038Z,103968.38
2024-01-08T18:47:29.946Z,103969.31
2024-01-08T18:49:57.857Z,103970.44
2024-01-08T18:52:26.880Z,103976.56
2024-01-08T18:54:54.671Z,103974.13
2024-01-08T18:57:22.816Z,103980.28
2024-01-08T18:59:50.661Z,103978.63
2024-01-08T19:02:18.454Z,103977.91
2024-01-08T19:04:46.296Z,103984.13
2024-01-08T19:07:14.177Z,103992.88
2024-01-08T19:09:44.296Z,103981.59
2024-01-08T19:12:12.015Z,103987.72
2024-01-08T19:14:39.716Z,103979.06
2024-01-08T19:17:07.549Z,103990.47
2024-01-08T19:19:35.337Z,103989.69
2024-01-08T19:22:05.750Z,103989.81
2024-01-08T19:24:33.403Z,103990.69
2024-01-08T19:27:02.995Z,103995.06
2024-01-08T19:29:31.612Z,103999.34
2024-01-08T19:31:59.330Z,104002.91
2024-01-08T19:34:27.695Z,103997.88
2024-01-08T19:36:56.037Z,103995.22
2024-01-08T19:39:27.854Z,103998.81
2024-01-08T19:41:56.741Z,104001.38
2024-01-08T19:44:26.091Z,104001.38
2024-01-08T19:46:58.021Z,104002.25
2024-01-08T19:49:31.115Z,104003.09
2024-01-08T19:52:00.232Z,104000.50
2024-01-08T19:54:28.628Z,104005.72
2024-01-08T19:56:56.374Z,104001.31
2024-01-08T19:59:24.279Z,104000.41
2024-01-08T20:01:53.344Z,103996.97
2024-01-08T20:04:21.211Z,103997.91
2024-01-08T20:06:49.160Z,103996.28
2024-01-08T20:09:16.982Z,104000.63
2024-01-08T20:11:44.834Z,104003.25
2024-01-08T20:14:12.556Z,103996.28
2024-01-08T20:16:40.248Z,104002.38
2024-01-08T20:19:09.375Z,104008.69
2024-01-08T20:21:37.377Z,104002.53
2024-01-08T20:24:05.539Z,103998.31
2024-01-08T20:26:33.293Z,104011.44
2024-01-08T20:29:01.117Z,104010.56
2024-01-08T20:31:28.777Z,104008.03
2024-01-08T20:33:56.478Z,104015.94
2024-01-08T20:36:27.264Z,104015.19
2024-01-08T20:38:55.189Z,104010.81
2024-01-08T20:41:22.825Z,104007.38
2024-01-08T20:43:50.554Z,104006.53
2024-01-08T20:46:18.176Z,104010.97
2024-01-08T20:48:46.173Z,104013.56
2024-01-08T20:51:13.982Z,104018.88
2024-01-08T20:53:43.489Z,104010.19
2024-01-08T20:56:11.292Z,104016.25
2024-01-08T20:58:38.946Z,104012.84
2024-01-08T21:01:07.575Z,104012.84
2024-01-08T21:03:35.402Z,104012.03
2024-01-08T21:06:03.336Z,104007.69
2024-01-08T21:08:31.315Z,104014.78
2024-01-08T21:11:00.331Z,104019.13
2024-01-08T21:13:28.106Z,104015.72
2024-01-08T21:15:55.758Z,104020.94
2024-01-08T21:18:23.626Z,104018.34
2024-01-08T21:20:51.582Z,104016.66
2024-01-08T21:23:19.326Z,104008.88
2024-01-08T21:25:46.968Z,103997.56
2024-01-08T21:28:16.263Z,104004.63
2024-01-08T21:30:43.980Z,104008.06
2024-01-08T21:33:11.947Z,104007.31
2024-01-08T21:35:39.879Z,104008.19
2024-01-08T21:38:07.585Z,104010.81
2024-01-08T21:40:35.232Z,104009.13
2024-01-08T21:43:04.397Z,104010.00
2024-01-08T21:45:33.449Z,104014.41
2024-01-08T21:48:01.556Z,104013.53
2024-01-08T21:50:29.313Z,104016.09
2024-01-08T21:52:56.936Z,104013.47
2024-01-08T21:55:24.667Z,104023.91
2024-01-08T21:57:52.306Z,104017.75
2024-01-08T22:00:20.479Z,104028.06
2024-01-08T22:02:49.645Z,104026.22
2024-01-08T22:05:17.739Z,104029.66
2024-01-08T22:07:45.428Z,104033.19
2024-01-08T22:10:13.076Z,104029.69
2024-01-08T22:12:42.425Z,104035.81
2024-01-08T22:15:11.048Z,104033.19
2024-01-08T22:17:39.123Z,104035.06
2024-01-08T22:20:08.941Z,104030.63
2024-01-08T22:22:36.728Z,104039.22
2024-01-08T22:25:04.779Z,104026.03
2024-01-08T22:27:33.169Z,104033.75
2024-01-08T22:30:00.956Z,104032.75
2024-01-08T22:32:28.705Z,104033.56
2024-01-08T22:34:56.893Z,104023.97
2024-01-08T22:37:26.037Z,104021.34
2024-01-08T22:39:53.727Z,104018.69
2024-01-08T22:42:21.547Z,104024.78
2024-01-08T22:44:49.346Z,104024.84
2024-01-08T22:47:17.099Z,104024.91
2024-01-08T22:49:44.979Z,104022.28
2024-01-08T22:52:12.672Z,104027.59
2024-01-08T22:54:41.624Z,104026.75
2024-01-08T22:57:10.490Z,104028.47
2024-01-08T22:59:38.548Z,104029.38
2024-01-08T23:02:06.233Z,104034.59
2024-01-08T23:04:34.666Z,104041.50
2024-01-08T23:07:02.348Z,104031.00
2024-01-08T23:09:29.996Z,104042.25
2024-01-08T23:11:59.010Z,104035.25
2024-01-08T23:14:26.752Z,104045.63
2024-01-08T23:16:54.492Z,104042.88
2024-01-08T23:19:22.144Z,104041.19
2024-01-08T23:21:50.207Z,104043.66
2024-01-08T23:24:17.866Z,104042.75
2024-01-08T23:26:46.926Z,104036.63
2024-01-08T23:29:16.014Z,104034.91
2024-01-08T23:31:44.330Z,104041.84
2024-01-08T23:34:18.263Z,104045.41
2024-01-08T23:36:49.661Z,104034.09
2024-01-08T23:39:17.452Z,104030.59
2024-01-08T23:41:45.354Z,104031.41
2024-01-08T23:44:14.352Z,104033.16
2024-01-08T23:46:43.850Z,104040.13
2024-01-08T23:49:11.669Z,104031.41
2024-01-08T23:51:39.424Z,104031.47
2024-01-08T23:54:07.085Z,104031.47
2024-01-08T23:56:35.122Z,104025.38
2024-01-08T23:59:02.881Z,104032.41
